Airfield :
LOGIN :

Register | Disclaimer

   EN    FR    IT 

 










Legend :    VFR   Marginal VFR   IFR   Intensive IFR   Very Intensive IFR
Visi :
Ceiling :
>= 8 km
>= 3000ft
5 to 8 km
1000 to 3000 ft
1500m to 5 km
500 to 1000 ft
800 to 1500m
200 to 500 ft
< 800m
< 200 ft
Symbols :   Thunderstorms  Fog  Heavy snow  Heavy precipitations  Wind > 20 kt
SIGMETs :     Misc.  Thunderstorms  Icing  Turbulence  Mountain Waves  Volcanic Ashes






- Airport Elevation : 56 ft
- IATA code : BZR


LFMU - Beziers / Vias

CURRENT METAR :
  • 070330Z AUTO 02004KT 9999 BKN005 17/13 Q1017 TEMPO 4000 BR

EXPIRED METARs :
  • 070300Z AUTO 03004KT CAVOK 17/13 Q1017 TEMPO 4000 BR BECMG BKN006
  • 070230Z AUTO 03003KT CAVOK 18/12 Q1017
  • 070200Z AUTO 03003KT CAVOK 18/12 Q1017
  • 070130Z AUTO 02003KT CAVOK 17/13 Q1017
  • 070100Z AUTO VRB02KT CAVOK 17/13 Q1017

TAF TAF LFMU
Valid from the 07 at 03:00 until the 08 at 03:00 UTC


070200Z 0703/0803 07005KT 9999 BKN006
PROB30
TEMPO 0703/0707 4000 BR
BECMG 0709/0711 14005KT FEW020
BECMG 0716/0718 BKN008
PROB30
TEMPO 0720/0803 4000 BR OVC005
ATIS : +33 4 67 90 88 88



MET'MAP, your aeronautical weather chart ! - Copyright ORBIFLY December 2007 - Disclaimer

ORBIFLY MET'MAP TEAM :

Programming & Development : Alexandra Zaïnal
Concept & original design : Baudouin d'Aumeries
Assistance for programming : Marc-Olivier Méhu
Technical & hardware support : Manuel Goepfert

Contact : metmap@orbifly.com




SOURCES & CREDITS :

   NOAA